sensor_id;sensor_type;location;lat;lon;timestamp;pressure;altitude;pressure_sealevel;temperature;humidity
11678;BME280;5895;41.950;24.372;2024-01-07T00:01:10;85525.47;;;6.08;100.00
11678;BME280;5895;41.950;24.372;2024-01-07T00:03:40;85502.81;;;6.10;100.00
11678;BME280;5895;41.950;24.372;2024-01-07T00:06:07;85495.00;;;6.05;100.00
11678;BME280;5895;41.950;24.372;2024-01-07T00:08:35;85489.31;;;6.03;100.00
11678;BME280;5895;41.950;24.372;2024-01-07T00:11:03;85480.91;;;6.07;100.00
11678;BME280;5895;41.950;24.372;2024-01-07T00:13:30;85483.69;;;6.06;100.00
11678;BME280;5895;41.950;24.372;2024-01-07T00:15:57;85478.53;;;6.06;100.00
11678;BME280;5895;41.950;24.372;2024-01-07T00:18:24;85473.41;;;6.06;100.00
11678;BME280;5895;41.950;24.372;2024-01-07T00:20:52;85486.84;;;6.08;100.00
11678;BME280;5895;41.950;24.372;2024-01-07T00:23:19;85481.69;;;6.08;100.00
11678;BME280;5895;41.950;24.372;2024-01-07T00:25:47;85480.13;;;6.07;100.00
11678;BME280;5895;41.950;24.372;2024-01-07T00:28:15;85499.16;;;6.06;100.00
11678;BME280;5895;41.950;24.372;2024-01-07T00:30:42;85469.06;;;6.06;100.00
11678;BME280;5895;41.950;24.372;2024-01-07T00:33:09;85487.84;;;6.07;100.00
11678;BME280;5895;41.950;24.372;2024-01-07T00:35:36;85497.13;;;6.08;100.00
11678;BME280;5895;41.950;24.372;2024-01-07T00:38:03;85480.59;;;6.04;100.00
11678;BME280;5895;41.950;24.372;2024-01-07T00:40:30;85473.09;;;6.02;100.00
11678;BME280;5895;41.950;24.372;2024-01-07T00:42:57;85459.22;;;6.03;100.00
11678;BME280;5895;41.950;24.372;2024-01-07T00:45:26;85437.34;;;6.06;100.00
11678;BME280;5895;41.950;24.372;2024-01-07T00:47:53;85431.44;;;6.05;100.00
11678;BME280;5895;41.950;24.372;2024-01-07T00:50:20;85419.56;;;6.04;100.00
11678;BME280;5895;41.950;24.372;2024-01-07T00:52:47;85421.38;;;6.04;100.00
11678;BME280;5895;41.950;24.372;2024-01-07T00:55:14;85413.66;;;6.04;100.00
11678;BME280;5895;41.950;24.372;2024-01-07T00:57:41;85379.16;;;6.05;100.00
11678;BME280;5895;41.950;24.372;2024-01-07T01:00:09;85370.41;;;6.06;100.00
11678;BME280;5895;41.950;24.372;2024-01-07T01:02:38;85372.22;;;6.05;100.00
11678;BME280;5895;41.950;24.372;2024-01-07T01:05:06;85359.06;;;6.02;100.00
11678;BME280;5895;41.950;24.372;2024-01-07T01:07:33;85363.72;;;6.05;100.00
11678;BME280;5895;41.950;24.372;2024-01-07T01:09:59;85359.59;;;6.04;100.00
11678;BME280;5895;41.950;24.372;2024-01-07T01:12:26;85348.25;;;6.05;100.00
11678;BME280;5895;41.950;24.372;2024-01-07T01:14:53;85343.13;;;6.05;100.00
11678;BME280;5895;41.950;24.372;2024-01-07T01:17:20;85337.50;;;6.08;100.00
11678;BME280;5895;41.950;24.372;2024-01-07T01:19:48;85335.47;;;6.10;100.00
11678;BME280;5895;41.950;24.372;2024-01-07T01:22:15;85325.16;;;6.10;100.00
11678;BME280;5895;41.950;24.372;2024-01-07T01:24:42;85314.88;;;6.10;100.00
11678;BME280;5895;41.950;24.372;2024-01-07T01:27:11;85329.53;;;6.09;100.00
11678;BME280;5895;41.950;24.372;2024-01-07T01:29:38;85311.75;;;6.08;100.00
11678;BME280;5895;41.950;24.372;2024-01-07T01:32:06;85291.16;;;6.08;100.00
11678;BME280;5895;41.950;24.372;2024-01-07T01:34:33;85291.63;;;6.05;100.00
11678;BME280;5895;41.950;24.372;2024-01-07T01:37:01;85262.47;;;5.99;100.00
11678;BME280;5895;41.950;24.372;2024-01-07T01:39:28;85287.94;;;5.96;100.00
11678;BME280;5895;41.950;24.372;2024-01-07T01:41:56;85271.41;;;5.92;100.00
11678;BME280;5895;41.950;24.372;2024-01-07T01:44:23;85283.25;;;5.93;100.00
11678;BME280;5895;41.950;24.372;2024-01-07T01:46:52;85256.47;;;5.94;100.00
11678;BME280;5895;41.950;24.372;2024-01-07T01:49:20;85238.47;;;5.94;100.00
11678;BME280;5895;41.950;24.372;2024-01-07T01:51:47;85233.31;;;5.94;100.00
11678;BME280;5895;41.950;24.372;2024-01-07T01:54:16;85234.34;;;5.93;100.00
11678;BME280;5895;41.950;24.372;2024-01-07T01:56:44;85233.56;;;5.92;100.00
11678;BME280;5895;41.950;24.372;2024-01-07T01:59:11;85241.81;;;5.94;100.00
11678;BME280;5895;41.950;24.372;2024-01-07T02:01:39;85229.72;;;5.95;100.00
11678;BME280;5895;41.950;24.372;2024-01-07T02:04:06;85236.44;;;5.96;100.00
11678;BME280;5895;41.950;24.372;2024-01-07T02:06:33;85242.59;;;5.95;100.00
11678;BME280;5895;41.950;24.372;2024-01-07T02:09:00;85239.56;;;5.98;100.00
11678;BME280;5895;41.950;24.372;2024-01-07T02:11:29;85230.34;;;6.02;100.00
11678;BME280;5895;41.950;24.372;2024-01-07T02:13:56;85225.19;;;6.02;100.00
11678;BME280;5895;41.950;24.372;2024-01-07T02:16:23;85237.56;;;6.05;100.00
11678;BME280;5895;41.950;24.372;2024-01-07T02:18:50;85244.81;;;6.08;100.00
11678;BME280;5895;41.950;24.372;2024-01-07T02:21:17;85244.81;;;6.08;100.00
11678;BME280;5895;41.950;24.372;2024-01-07T02:23:44;85230.41;;;6.07;100.00
11678;BME280;5895;41.950;24.372;2024-01-07T02:26:13;85229.06;;;6.04;100.00
11678;BME280;5895;41.950;24.372;2024-01-07T02:28:40;85226.25;;;6.06;100.00
11678;BME280;5895;41.950;24.372;2024-01-07T02:31:07;85236.00;;;6.04;100.00
11678;BME280;5895;41.950;24.372;2024-01-07T02:33:34;85228.03;;;6.05;100.00
11678;BME280;5895;41.950;24.372;2024-01-07T02:36:01;85211.03;;;6.04;100.00
11678;BME280;5895;41.950;24.372;2024-01-07T02:38:28;85209.25;;;6.05;100.00
11678;BME280;5895;41.950;24.372;2024-01-07T02:40:55;85218.53;;;6.06;100.00
11678;BME280;5895;41.950;24.372;2024-01-07T02:43:23;85253.00;;;6.05;100.00
11678;BME280;5895;41.950;24.372;2024-01-07T02:45:50;85245.47;;;5.98;100.00
11678;BME280;5895;41.950;24.372;2024-01-07T02:48:17;85261.09;;;5.92;100.00
11678;BME280;5895;41.950;24.372;2024-01-07T02:50:44;85244.25;;;5.84;100.00
11678;BME280;5895;41.950;24.372;2024-01-07T02:53:11;85240.78;;;5.73;100.00
11678;BME280;5895;41.950;24.372;2024-01-07T02:55:38;85238.84;;;5.64;100.00
11678;BME280;5895;41.950;24.372;2024-01-07T02:58:05;85239.47;;;5.54;100.00
11678;BME280;5895;41.950;24.372;2024-01-07T03:00:34;85243.25;;;5.46;100.00
11678;BME280;5895;41.950;24.372;2024-01-07T03:03:01;85263.34;;;5.32;100.00
11678;BME280;5895;41.950;24.372;2024-01-07T03:05:28;85262.13;;;5.18;100.00
11678;BME280;5895;41.950;24.372;2024-01-07T03:07:58;85230.81;;;5.04;100.00
11678;BME280;5895;41.950;24.372;2024-01-07T03:10:25;85222.72;;;4.96;100.00
11678;BME280;5895;41.950;24.372;2024-01-07T03:12:52;85220.00;;;4.86;100.00
11678;BME280;5895;41.950;24.372;2024-01-07T03:15:19;85219.28;;;4.73;100.00
11678;BME280;5895;41.950;24.372;2024-01-07T03:17:48;85209.34;;;4.60;100.00
11678;BME280;5895;41.950;24.372;2024-01-07T03:20:15;85210.38;;;4.47;100.00
11678;BME280;5895;41.950;24.372;2024-01-07T03:22:42;85201.72;;;4.37;100.00
11678;BME280;5895;41.950;24.372;2024-01-07T03:25:09;85180.03;;;4.28;100.00
11678;BME280;5895;41.950;24.372;2024-01-07T03:27:36;85175.34;;;4.24;100.00
11678;BME280;5895;41.950;24.372;2024-01-07T03:30:04;85174.72;;;4.17;100.00
11678;BME280;5895;41.950;24.372;2024-01-07T03:32:31;85170.53;;;4.11;100.00
11678;BME280;5895;41.950;24.372;2024-01-07T03:35:00;85157.59;;;4.06;100.00
11678;BME280;5895;41.950;24.372;2024-01-07T03:37:27;85162.00;;;3.94;100.00
11678;BME280;5895;41.950;24.372;2024-01-07T03:39:54;85137.19;;;3.83;100.00
11678;BME280;5895;41.950;24.372;2024-01-07T03:42:21;85120.38;;;3.75;100.00
11678;BME280;5895;41.950;24.372;2024-01-07T03:44:48;85100.78;;;3.69;100.00
11678;BME280;5895;41.950;24.372;2024-01-07T03:47:15;85102.03;;;3.66;100.00
11678;BME280;5895;41.950;24.372;2024-01-07T03:49:41;85104.50;;;3.61;100.00
11678;BME280;5895;41.950;24.372;2024-01-07T03:52:10;85098.88;;;3.64;100.00
11678;BME280;5895;41.950;24.372;2024-01-07T03:54:37;85112.09;;;3.56;100.00
11678;BME280;5895;41.950;24.372;2024-01-07T03:57:04;85110.22;;;3.52;100.00
11678;BME280;5895;41.950;24.372;2024-01-07T03:59:31;85106.25;;;3.44;100.00
11678;BME280;5895;41.950;24.372;2024-01-07T04:01:58;85100.47;;;3.37;100.00
11678;BME280;5895;41.950;24.372;2024-01-07T04:04:25;85095.25;;;3.32;100.00
11678;BME280;5895;41.950;24.372;2024-01-07T04:06:52;85118.31;;;3.32;100.00
11678;BME280;5895;41.950;24.372;2024-01-07T04:09:21;85122.44;;;3.33;100.00
11678;BME280;5895;41.950;24.372;2024-01-07T04:11:48;85141.94;;;3.34;100.00
11678;BME280;5895;41.950;24.372;2024-01-07T04:14:15;85135.25;;;3.33;100.00
11678;BME280;5895;41.950;24.372;2024-01-07T04:16:42;85142.16;;;3.32;100.00
11678;BME280;5895;41.950;24.372;2024-01-07T04:19:09;85116.84;;;3.36;100.00
11678;BME280;5895;41.950;24.372;2024-01-07T04:21:36;85123.53;;;3.37;100.00
11678;BME280;5895;41.950;24.372;2024-01-07T04:24:04;85103.81;;;3.37;100.00
11678;BME280;5895;41.950;24.372;2024-01-07T04:26:33;85092.31;;;3.40;100.00
11678;BME280;5895;41.950;24.372;2024-01-07T04:29:00;85100.00;;;3.40;100.00
11678;BME280;5895;41.950;24.372;2024-01-07T04:31:27;85100.47;;;3.37;100.00
11678;BME280;5895;41.950;24.372;2024-01-07T04:33:54;85106.03;;;3.34;100.00
11678;BME280;5895;41.950;24.372;2024-01-07T04:36:21;85110.06;;;3.30;100.00
11678;BME280;5895;41.950;24.372;2024-01-07T04:38:48;85131.56;;;3.29;100.00
11678;BME280;5895;41.950;24.372;2024-01-07T04:41:15;85137.38;;;3.24;100.00
11678;BME280;5895;41.950;24.372;2024-01-07T04:43:44;85135.72;;;3.18;100.00
11678;BME280;5895;41.950;24.372;2024-01-07T04:46:11;85140.88;;;3.06;100.00
11678;BME280;5895;41.950;24.372;2024-01-07T04:48:38;85128.19;;;3.00;100.00
11678;BME280;5895;41.950;24.372;2024-01-07T04:51:05;85131.00;;;2.98;100.00
11678;BME280;5895;41.950;24.372;2024-01-07T04:53:33;85134.09;;;3.00;100.00
11678;BME280;5895;41.950;24.372;2024-01-07T04:56:00;85130.28;;;3.03;100.00
11678;BME280;5895;41.950;24.372;2024-01-07T04:58:28;85134.75;;;3.07;100.00
11678;BME280;5895;41.950;24.372;2024-01-07T05:00:56;85147.13;;;3.10;100.00
11678;BME280;5895;41.950;24.372;2024-01-07T05:03:23;85140.97;;;3.11;100.00
11678;BME280;5895;41.950;24.372;2024-01-07T05:05:50;85151.22;;;3.11;100.00
11678;BME280;5895;41.950;24.372;2024-01-07T05:08:17;85150.69;;;3.09;100.00
11678;BME280;5895;41.950;24.372;2024-01-07T05:10:44;85167.03;;;3.08;100.00
11678;BME280;5895;41.950;24.372;2024-01-07T05:13:11;85167.03;;;3.08;100.00
11678;BME280;5895;41.950;24.372;2024-01-07T05:15:38;85161.91;;;3.08;100.00
11678;BME280;5895;41.950;24.372;2024-01-07T05:18:08;85171.72;;;3.11;100.00
11678;BME280;5895;41.950;24.372;2024-01-07T05:20:35;85156.00;;;3.08;100.00
11678;BME280;5895;41.950;24.372;2024-01-07T05:23:03;85164.81;;;3.12;100.00
11678;BME280;5895;41.950;24.372;2024-01-07T05:25:30;85183.09;;;3.15;100.00
11678;BME280;5895;41.950;24.372;2024-01-07T05:27:57;85161.34;;;3.18;100.00
11678;BME280;5895;41.950;24.372;2024-01-07T05:30:24;85162.13;;;3.18;100.00
11678;BME280;5895;41.950;24.372;2024-01-07T05:32:51;85168.81;;;3.19;100.00
11678;BME280;5895;41.950;24.372;2024-01-07T05:35:19;85170.38;;;3.21;100.00
11678;BME280;5895;41.950;24.372;2024-01-07T05:37:46;85165.69;;;3.17;100.00
11678;BME280;5895;41.950;24.372;2024-01-07T05:40:13;85150.78;;;3.14;100.00
11678;BME280;5895;41.950;24.372;2024-01-07T05:42:40;85150.44;;;3.11;100.00
11678;BME280;5895;41.950;24.372;2024-01-07T05:45:08;85150.69;;;3.09;100.00
11678;BME280;5895;41.950;24.372;2024-01-07T05:47:35;85149.34;;;3.07;100.00
11678;BME280;5895;41.950;24.372;2024-01-07T05:50:02;85142.91;;;3.04;100.00
11678;BME280;5895;41.950;24.372;2024-01-07T05:52:31;85145.00;;;3.07;100.00
11678;BME280;5895;41.950;24.372;2024-01-07T05:54:58;85150.56;;;3.04;100.00
11678;BME280;5895;41.950;24.372;2024-01-07T05:57:26;85157.69;;;3.02;100.00
11678;BME280;5895;41.950;24.372;2024-01-07T05:59:53;85172.09;;;3.03;100.00
11678;BME280;5895;41.950;24.372;2024-01-07T06:02:20;85156.47;;;3.05;100.00
11678;BME280;5895;41.950;24.372;2024-01-07T06:04:48;85159.03;;;3.05;100.00
11678;BME280;5895;41.950;24.372;2024-01-07T06:07:15;85155.13;;;3.02;100.00
11678;BME280;5895;41.950;24.372;2024-01-07T06:09:43;85161.91;;;3.08;100.00
11678;BME280;5895;41.950;24.372;2024-01-07T06:12:10;85169.16;;;3.11;100.00
11678;BME280;5895;41.950;24.372;2024-01-07T06:14:38;85170.72;;;3.12;100.00
11678;BME280;5895;41.950;24.372;2024-01-07T06:17:05;85178.75;;;3.16;100.00
11678;BME280;5895;41.950;24.372;2024-01-07T06:19:32;85166.81;;;3.22;100.00
11678;BME280;5895;41.950;24.372;2024-01-07T06:21:59;85177.94;;;3.27;100.00
11678;BME280;5895;41.950;24.372;2024-01-07T06:24:26;85191.06;;;3.31;100.00
11678;BME280;5895;41.950;24.372;2024-01-07T06:26:55;85180.91;;;3.36;100.00
11678;BME280;5895;41.950;24.372;2024-01-07T06:29:22;85202.09;;;3.43;100.00
11678;BME280;5895;41.950;24.372;2024-01-07T06:31:49;85198.84;;;3.48;100.00
11678;BME280;5895;41.950;24.372;2024-01-07T06:34:16;85180.44;;;3.51;100.00
11678;BME280;5895;41.950;24.372;2024-01-07T06:36:43;85190.25;;;3.54;100.00
11678;BME280;5895;41.950;24.372;2024-01-07T06:39:10;85189.78;;;3.57;100.00
11678;BME280;5895;41.950;24.372;2024-01-07T06:41:37;85203.16;;;3.59;100.00
11678;BME280;5895;41.950;24.372;2024-01-07T06:44:05;85192.13;;;3.58;100.00
11678;BME280;5895;41.950;24.372;2024-01-07T06:46:33;85194.13;;;3.56;100.00
11678;BME280;5895;41.950;24.372;2024-01-07T06:49:00;85194.91;;;3.57;100.00
11678;BME280;5895;41.950;24.372;2024-01-07T06:51:28;85200.81;;;3.57;100.00
11678;BME280;5895;41.950;24.372;2024-01-07T06:53:55;85207.50;;;3.58;100.00
11678;BME280;5895;41.950;24.372;2024-01-07T06:56:22;85203.97;;;3.59;100.00
11678;BME280;5895;41.950;24.372;2024-01-07T06:58:50;85204.72;;;3.60;100.00
11678;BME280;5895;41.950;24.372;2024-01-07T07:01:20;85174.25;;;3.63;100.00
11678;BME280;5895;41.950;24.372;2024-01-07T07:03:48;85188.09;;;3.62;100.00
11678;BME280;5895;41.950;24.372;2024-01-07T07:06:15;85195.78;;;3.62;100.00
11678;BME280;5895;41.950;24.372;2024-01-07T07:08:42;85172.47;;;3.64;100.00
11678;BME280;5895;41.950;24.372;2024-01-07T07:11:09;85191.22;;;3.64;100.00
11678;BME280;5895;41.950;24.372;2024-01-07T07:13:36;85186.06;;;3.64;100.00
11678;BME280;5895;41.950;24.372;2024-01-07T07:16:05;85190.13;;;3.60;100.00
11678;BME280;5895;41.950;24.372;2024-01-07T07:18:34;85193.22;;;3.62;100.00
11678;BME280;5895;41.950;24.372;2024-01-07T07:21:01;85189.22;;;3.66;100.00
11678;BME280;5895;41.950;24.372;2024-01-07T07:23:28;85199.00;;;3.69;100.00
11678;BME280;5895;41.950;24.372;2024-01-07T07:25:55;85206.25;;;3.72;100.00
11678;BME280;5895;41.950;24.372;2024-01-07T07:28:22;85239.34;;;3.74;100.00
11678;BME280;5895;41.950;24.372;2024-01-07T07:30:49;85239.13;;;3.76;100.00
11678;BME280;5895;41.950;24.372;2024-01-07T07:33:16;85226.41;;;3.81;100.00
11678;BME280;5895;41.950;24.372;2024-01-07T07:35:45;85234.19;;;3.86;100.00
11678;BME280;5895;41.950;24.372;2024-01-07T07:38:12;85214.44;;;3.86;100.00
11678;BME280;5895;41.950;24.372;2024-01-07T07:40:40;85233.75;;;3.89;100.00
11678;BME280;5895;41.950;24.372;2024-01-07T07:43:08;85227.22;;;3.98;100.00
11678;BME280;5895;41.950;24.372;2024-01-07T07:45:35;85216.53;;;4.01;100.00
11678;BME280;5895;41.950;24.372;2024-01-07T07:48:02;85207.38;;;4.05;100.00
11678;BME280;5895;41.950;24.372;2024-01-07T07:50:29;85195.06;;;4.07;99.03
11678;BME280;5895;41.950;24.372;2024-01-07T07:52:58;85213.66;;;4.14;100.00
11678;BME280;5895;41.950;24.372;2024-01-07T07:55:25;85209.56;;;4.13;100.00
11678;BME280;5895;41.950;24.372;2024-01-07T07:57:52;85195.78;;;4.19;97.49
11678;BME280;5895;41.950;24.372;2024-01-07T08:00:20;85193.88;;;4.27;100.00
11678;BME280;5895;41.950;24.372;2024-01-07T08:02:47;85180.22;;;4.38;100.00
11678;BME280;5895;41.950;24.372;2024-01-07T08:05:14;85182.38;;;4.46;99.01
11678;BME280;5895;41.950;24.372;2024-01-07T08:07:42;85191.09;;;4.45;100.00
11678;BME280;5895;41.950;24.372;2024-01-07T08:10:10;85184.41;;;4.44;99.29
11678;BME280;5895;41.950;24.372;2024-01-07T08:12:37;85174.13;;;4.44;93.52
11678;BME280;5895;41.950;24.372;2024-01-07T08:15:06;85184.50;;;4.49;96.65
11678;BME280;5895;41.950;24.372;2024-01-07T08:17:33;85182.22;;;4.53;94.36
11678;BME280;5895;41.950;24.372;2024-01-07T08:20:00;85191.28;;;4.55;99.63
11678;BME280;5895;41.950;24.372;2024-01-07T08:22:29;85193.28;;;4.53;100.00
11678;BME280;5895;41.950;24.372;2024-01-07T08:24:56;85184.25;;;4.50;100.00
11678;BME280;5895;41.950;24.372;2024-01-07T08:27:24;85185.03;;;4.51;100.00
11678;BME280;5895;41.950;24.372;2024-01-07T08:29:52;85183.78;;;4.54;100.00
11678;BME280;5895;41.950;24.372;2024-01-07T08:32:19;85191.28;;;4.55;100.00
11678;BME280;5895;41.950;24.372;2024-01-07T08:34:48;85190.78;;;4.58;98.56
11678;BME280;5895;41.950;24.372;2024-01-07T08:37:15;85188.22;;;4.58;100.00
11678;BME280;5895;41.950;24.372;2024-01-07T08:39:42;85176.94;;;4.59;100.00
11678;BME280;5895;41.950;24.372;2024-01-07T08:42:09;85175.84;;;4.55;100.00
11678;BME280;5895;41.950;24.372;2024-01-07T08:44:37;85173.28;;;4.55;100.00
11678;BME280;5895;41.950;24.372;2024-01-07T08:47:10;85173.75;;;4.52;100.00
11678;BME280;5895;41.950;24.372;2024-01-07T08:49:42;85187.50;;;4.46;100.00
11678;BME280;5895;41.950;24.372;2024-01-07T08:52:09;85157.97;;;4.43;100.00
11678;BME280;5895;41.950;24.372;2024-01-07T08:54:36;85158.41;;;4.40;100.00
11678;BME280;5895;41.950;24.372;2024-01-07T08:57:04;85155.84;;;4.40;100.00
11678;BME280;5895;41.950;24.372;2024-01-07T08:59:31;85156.63;;;4.41;100.00
11678;BME280;5895;41.950;24.372;2024-01-07T09:01:59;85151.03;;;4.44;100.00
11678;BME280;5895;41.950;24.372;2024-01-07T09:04:26;85151.56;;;4.46;100.00
11678;BME280;5895;41.950;24.372;2024-01-07T09:06:53;85132.13;;;4.50;100.00
11678;BME280;5895;41.950;24.372;2024-01-07T09:09:20;85145.50;;;4.52;100.00
11678;BME280;5895;41.950;24.372;2024-01-07T09:11:47;85155.78;;;4.52;100.00
11678;BME280;5895;41.950;24.372;2024-01-07T09:14:15;85157.88;;;4.55;100.00
11678;BME280;5895;41.950;24.372;2024-01-07T09:16:42;85172.03;;;4.58;100.00
11678;BME280;5895;41.950;24.372;2024-01-07T09:19:11;85164.66;;;4.61;100.00
11678;BME280;5895;41.950;24.372;2024-01-07T09:21:38;85156.38;;;4.59;100.00
11678;BME280;5895;41.950;24.372;2024-01-07T09:24:05;85167.22;;;4.61;100.00
11678;BME280;5895;41.950;24.372;2024-01-07T09:26:34;85169.09;;;4.66;100.00
11678;BME280;5895;41.950;24.372;2024-01-07T09:29:01;85157.81;;;4.67;100.00
11678;BME280;5895;41.950;24.372;2024-01-07T09:31:28;85152.88;;;4.65;100.00
11678;BME280;5895;41.950;24.372;2024-01-07T09:33:55;85145.72;;;4.67;100.00
11678;BME280;5895;41.950;24.372;2024-01-07T09:36:23;85153.97;;;4.69;100.00
11678;BME280;5895;41.950;24.372;2024-01-07T09:38:51;85143.78;;;4.74;100.00
11678;BME280;5895;41.950;24.372;2024-01-07T09:41:19;85142.84;;;4.81;100.00
11678;BME280;5895;41.950;24.372;2024-01-07T09:43:46;85135.19;;;4.86;100.00
11678;BME280;5895;41.950;24.372;2024-01-07T09:46:13;85159.34;;;4.85;100.00
11678;BME280;5895;41.950;24.372;2024-01-07T09:48:41;85125.25;;;4.89;100.00
11678;BME280;5895;41.950;24.372;2024-01-07T09:51:09;85125.06;;;4.96;100.00
11678;BME280;5895;41.950;24.372;2024-01-07T09:53:39;85110.88;;;4.93;100.00
11678;BME280;5895;41.950;24.372;2024-01-07T09:56:11;85094.69;;;4.93;100.00
11678;BME280;5895;41.950;24.372;2024-01-07T09:58:41;85100.84;;;4.92;100.00
11678;BME280;5895;41.950;24.372;2024-01-07T10:01:08;85113.31;;;5.00;100.00
11678;BME280;5895;41.950;24.372;2024-01-07T10:03:36;85086.84;;;4.99;100.00
11678;BME280;5895;41.950;24.372;2024-01-07T10:06:04;85095.25;;;4.95;100.00
11678;BME280;5895;41.950;24.372;2024-01-07T10:08:32;85082.41;;;4.95;100.00
11678;BME280;5895;41.950;24.372;2024-01-07T10:11:00;85088.28;;;5.12;100.00
11678;BME280;5895;41.950;24.372;2024-01-07T10:13:29;85064.72;;;5.20;100.00
11678;BME280;5895;41.950;24.372;2024-01-07T10:15:55;85087.72;;;5.32;100.00
11678;BME280;5895;41.950;24.372;2024-01-07T10:18:23;85092.78;;;5.49;100.00
11678;BME280;5895;41.950;24.372;2024-01-07T10:20:50;85090.59;;;5.57;100.00
11678;BME280;5895;41.950;24.372;2024-01-07T10:23:19;85079.34;;;5.64;100.00
11678;BME280;5895;41.950;24.372;2024-01-07T10:25:46;85081.00;;;5.75;100.00
11678;BME280;5895;41.950;24.372;2024-01-07T10:28:15;85067.97;;;5.87;100.00
11678;BME280;5895;41.950;24.372;2024-01-07T10:30:48;85070.81;;;5.85;100.00
11678;BME280;5895;41.950;24.372;2024-01-07T10:33:17;85093.72;;;5.87;100.00
11678;BME280;5895;41.950;24.372;2024-01-07T10:35:50;85078.66;;;5.73;100.00
11678;BME280;5895;41.950;24.372;2024-01-07T10:38:18;85068.75;;;5.60;100.00
11678;BME280;5895;41.950;24.372;2024-01-07T10:40:47;85087.19;;;5.52;100.00
11678;BME280;5895;41.950;24.372;2024-01-07T10:43:17;85064.94;;;5.41;100.00
11678;BME280;5895;41.950;24.372;2024-01-07T10:45:47;85046.63;;;5.37;100.00
11678;BME280;5895;41.950;24.372;2024-01-07T10:48:17;85053.56;;;5.37;100.00
11678;BME280;5895;41.950;24.372;2024-01-07T10:50:45;85045.88;;;5.37;100.00
11678;BME280;5895;41.950;24.372;2024-01-07T10:53:18;85061.78;;;5.34;100.00
11678;BME280;5895;41.950;24.372;2024-01-07T10:55:56;85032.81;;;5.43;100.00
11678;BME280;5895;41.950;24.372;2024-01-07T10:58:28;85020.19;;;5.42;100.00
11678;BME280;5895;41.950;24.372;2024-01-07T11:00:55;85037.44;;;5.41;100.00
11678;BME280;5895;41.950;24.372;2024-01-07T11:03:30;85054.22;;;5.49;100.00
11678;BME280;5895;41.950;24.372;2024-01-07T11:06:03;85016.97;;;5.51;100.00
11678;BME280;5895;41.950;24.372;2024-01-07T11:08:36;85029.13;;;5.61;100.00
11678;BME280;5895;41.950;24.372;2024-01-07T11:11:09;85031.84;;;5.76;100.00
11678;BME280;5895;41.950;24.372;2024-01-07T11:13:41;85021.66;;;5.87;100.00
11678;BME280;5895;41.950;24.372;2024-01-07T11:16:08;85020.28;;;6.01;100.00
11678;BME280;5895;41.950;24.372;2024-01-07T11:18:38;85036.97;;;6.30;99.94
11678;BME280;5895;41.950;24.372;2024-01-07T11:21:06;85024.53;;;6.22;97.76
11678;BME280;5895;41.950;24.372;2024-01-07T11:23:34;85025.47;;;6.43;98.10
11678;BME280;5895;41.950;24.372;2024-01-07T11:26:04;85029.59;;;6.44;100.00
11678;BME280;5895;41.950;24.372;2024-01-07T11:28:50;85034.09;;;6.59;100.00
11678;BME280;5895;41.950;24.372;2024-01-07T11:31:18;84990.75;;;6.51;97.35
11678;BME280;5895;41.950;24.372;2024-01-07T11:33:46;85013.63;;;6.42;96.60
11678;BME280;5895;41.950;24.372;2024-01-07T11:36:14;85022.00;;;6.27;98.46
11678;BME280;5895;41.950;24.372;2024-01-07T11:38:42;85018.06;;;6.15;97.75
11678;BME280;5895;41.950;24.372;2024-01-07T11:41:11;85004.84;;;6.01;99.27
11678;BME280;5895;41.950;24.372;2024-01-07T11:43:53;85027.88;;;5.91;100.00
11678;BME280;5895;41.950;24.372;2024-01-07T11:46:21;85021.13;;;5.84;99.45
11678;BME280;5895;41.950;24.372;2024-01-07T11:48:48;85026.50;;;5.83;98.54
11678;BME280;5895;41.950;24.372;2024-01-07T11:51:16;85047.91;;;5.89;99.26
11678;BME280;5895;41.950;24.372;2024-01-07T11:53:46;85042.84;;;5.94;100.00
11678;BME280;5895;41.950;24.372;2024-01-07T11:56:13;85035.38;;;5.92;98.52
11678;BME280;5895;41.950;24.372;2024-01-07T11:58:40;85051.84;;;5.91;99.37
11678;BME280;5895;41.950;24.372;2024-01-07T12:01:09;85047.41;;;5.87;98.88
11678;BME280;5895;41.950;24.372;2024-01-07T12:03:36;85051.47;;;5.82;100.00
11678;BME280;5895;41.950;24.372;2024-01-07T12:06:03;85046.09;;;5.84;98.66
11678;BME280;5895;41.950;24.372;2024-01-07T12:08:30;85058.47;;;5.87;99.63
11678;BME280;5895;41.950;24.372;2024-01-07T12:10:57;85039.16;;;5.84;99.01
11678;BME280;5895;41.950;24.372;2024-01-07T12:13:26;85039.63;;;5.81;100.00
11678;BME280;5895;41.950;24.372;2024-01-07T12:15:53;85045.78;;;5.80;100.00
11678;BME280;5895;41.950;24.372;2024-01-07T12:18:22;85043.22;;;5.80;100.00
11678;BME280;5895;41.950;24.372;2024-01-07T12:20:55;85041.69;;;5.79;100.00
11678;BME280;5895;41.950;24.372;2024-01-07T12:23:23;85031.84;;;5.76;100.00
11678;BME280;5895;41.950;24.372;2024-01-07T12:25:50;85027.22;;;5.73;100.00
11678;BME280;5895;41.950;24.372;2024-01-07T12:28:18;85023.63;;;5.74;100.00
11678;BME280;5895;41.950;24.372;2024-01-07T12:30:45;85029.84;;;5.78;100.00
11678;BME280;5895;41.950;24.372;2024-01-07T12:33:15;85022.13;;;5.83;100.00
11678;BME280;5895;41.950;24.372;2024-01-07T12:35:46;85020.09;;;5.86;100.00
11678;BME280;5895;41.950;24.372;2024-01-07T12:38:13;85015.44;;;5.82;100.00
11678;BME280;5895;41.950;24.372;2024-01-07T12:40:40;85025.25;;;5.86;100.00
11678;BME280;5895;41.950;24.372;2024-01-07T12:43:07;85037.34;;;5.85;100.00
11678;BME280;5895;41.950;24.372;2024-01-07T12:45:34;85023.72;;;5.84;100.00
11678;BME280;5895;41.950;24.372;2024-01-07T12:48:01;85028.84;;;5.84;100.00
11678;BME280;5895;41.950;24.372;2024-01-07T12:50:28;85027.28;;;5.83;100.00
11678;BME280;5895;41.950;24.372;2024-01-07T12:52:58;85023.22;;;5.88;100.00
11678;BME280;5895;41.950;24.372;2024-01-07T12:55:26;85043.03;;;5.87;100.00
11678;BME280;5895;41.950;24.372;2024-01-07T12:57:53;85029.13;;;5.88;100.00
11678;BME280;5895;41.950;24.372;2024-01-07T13:00:22;85029.63;;;5.85;100.00
11678;BME280;5895;41.950;24.372;2024-01-07T13:02:49;85021.88;;;5.80;100.00